createdAt,value
2019-03-26T00:00:21.581Z,1.73
2019-03-26T00:02:52.379Z,1.60
2019-03-26T00:05:23.195Z,1.70
2019-03-26T00:07:54.110Z,1.70
2019-03-26T00:10:25.945Z,2.03
2019-03-26T00:12:56.757Z,1.70
2019-03-26T00:15:27.542Z,2.00
2019-03-26T00:17:58.310Z,1.97
2019-03-26T00:20:30.326Z,1.57
2019-03-26T00:23:01.118Z,1.70
2019-03-26T00:25:31.918Z,1.60
2019-03-26T00:28:02.696Z,2.20
2019-03-26T00:30:33.466Z,1.90
2019-03-26T00:33:04.235Z,2.03
2019-03-26T00:35:35.077Z,2.13
2019-03-26T00:38:05.863Z,1.93
2019-03-26T00:40:40.070Z,1.92
2019-03-26T00:43:10.263Z,1.80
2019-03-26T00:45:41.067Z,2.50
2019-03-26T00:48:11.927Z,2.23
2019-03-26T00:50:44.540Z,2.07
2019-03-26T00:53:15.695Z,2.40
2019-03-26T00:55:46.735Z,2.47
2019-03-26T00:58:18.125Z,2.40
2019-03-26T01:00:49.029Z,2.30
2019-03-26T01:03:19.859Z,2.70
2019-03-26T01:05:51.014Z,2.47
2019-03-26T01:08:22.262Z,2.63
2019-03-26T01:10:53.680Z,2.60
2019-03-26T01:13:24.517Z,2.40
2019-03-26T01:15:55.887Z,3.40
2019-03-26T01:18:27.144Z,2.80
2019-03-26T01:20:58.131Z,2.70
2019-03-26T01:23:29.090Z,2.40
2019-03-26T01:26:00.390Z,3.10
2019-03-26T01:28:31.185Z,3.13
2019-03-26T01:31:02.247Z,2.93
2019-03-26T01:33:33.400Z,2.80
2019-03-26T01:36:04.722Z,3.67
2019-03-26T01:38:35.548Z,3.13
2019-03-26T01:41:06.833Z,3.47
2019-03-26T01:43:39.390Z,3.40
2019-03-26T01:46:10.529Z,3.40
2019-03-26T01:48:41.892Z,3.30
2019-03-26T01:51:13.135Z,3.27
2019-03-26T01:53:45.221Z,3.40
2019-03-26T01:56:16.099Z,3.17
2019-03-26T01:58:47.180Z,3.50
2019-03-26T02:01:18.920Z,3.43
2019-03-26T02:03:50.090Z,3.60
2019-03-26T02:06:21.222Z,3.65
2019-03-26T02:08:52.031Z,4.03
2019-03-26T02:11:22.815Z,4.23
2019-03-26T02:13:53.939Z,3.50
2019-03-26T02:16:25.090Z,4.30
2019-03-26T02:18:56.638Z,3.50
2019-03-26T02:21:28.498Z,4.27
2019-03-26T02:23:59.380Z,4.60
2019-03-26T02:26:30.187Z,4.43
2019-03-26T02:29:00.979Z,4.30
2019-03-26T02:31:32.411Z,4.07
2019-03-26T02:34:03.165Z,4.97
2019-03-26T02:36:33.948Z,5.03
2019-03-26T02:39:05.903Z,5.12
2019-03-26T02:41:38.037Z,4.42
2019-03-26T02:44:09.044Z,4.60
2019-03-26T02:46:39.890Z,4.60
2019-03-26T02:49:10.639Z,4.17
2019-03-26T02:51:41.719Z,4.47
2019-03-26T02:54:12.507Z,4.53
2019-03-26T02:56:43.313Z,4.60
2019-03-26T02:59:14.971Z,4.53
2019-03-26T03:01:46.093Z,5.50
2019-03-26T03:04:16.882Z,5.70
2019-03-26T03:06:47.675Z,5.12
2019-03-26T03:09:18.492Z,5.07
2019-03-26T03:11:49.264Z,6.07
2019-03-26T03:14:20.375Z,5.50
2019-03-26T03:19:38.225Z,6.20
2019-03-26T03:22:09.673Z,6.37
2019-03-26T03:24:41.680Z,6.23
2019-03-26T03:27:12.880Z,5.67
2019-03-26T03:29:43.677Z,5.80
2019-03-26T03:32:14.483Z,5.17
2019-03-26T03:34:49.258Z,5.50
2019-03-26T03:37:20.489Z,5.33
2019-03-26T03:39:52.055Z,5.43
2019-03-26T03:42:25.943Z,5.40
2019-03-26T03:45:00.995Z,5.40
2019-03-26T03:47:34.426Z,5.00
2019-03-26T03:50:07.860Z,5.50
2019-03-26T03:52:41.137Z,5.10
2019-03-26T03:55:13.166Z,5.10
2019-03-26T03:57:52.449Z,4.90
2019-03-26T04:00:40.816Z,5.57
2019-03-26T04:03:11.995Z,5.23
2019-03-26T04:05:44.232Z,5.40
2019-03-26T04:08:15.017Z,5.43
2019-03-26T04:10:45.739Z,5.57
2019-03-26T04:13:17.499Z,4.67
2019-03-26T04:15:48.664Z,5.10
2019-03-26T04:18:21.294Z,5.30
2019-03-26T04:20:53.401Z,4.90
2019-03-26T04:23:27.109Z,5.23
2019-03-26T04:25:57.908Z,5.07
2019-03-26T04:28:33.721Z,5.17
2019-03-26T04:31:13.460Z,4.47
2019-03-26T04:33:44.595Z,4.97
2019-03-26T04:36:25.609Z,5.73
2019-03-26T04:38:53.736Z,5.30
2019-03-26T04:41:26.590Z,5.20
2019-03-26T04:43:59.103Z,4.97
2019-03-26T04:46:34.434Z,5.10
2019-03-26T04:49:06.203Z,4.63
2019-03-26T04:51:39.033Z,5.17
2019-03-26T04:54:10.181Z,5.10
2019-03-26T04:56:41.472Z,4.57
2019-03-26T04:59:13.120Z,4.67
2019-03-26T05:01:44.471Z,4.50
2019-03-26T05:04:15.548Z,5.00
2019-03-26T05:06:46.425Z,4.20
2019-03-26T05:09:17.373Z,4.67
2019-03-26T05:11:48.231Z,4.77
2019-03-26T05:14:19.984Z,4.83
2019-03-26T05:16:51.074Z,5.20
2019-03-26T05:19:22.792Z,5.70
2019-03-26T05:21:54.368Z,5.53
2019-03-26T05:24:25.202Z,5.33
2019-03-26T05:26:56.937Z,4.83
2019-03-26T05:29:28.287Z,5.03
2019-03-26T05:31:59.137Z,4.97
2019-03-26T05:34:30.367Z,4.90
2019-03-26T05:37:02.055Z,4.90
2019-03-26T05:39:32.896Z,4.67
2019-03-26T05:42:04.815Z,4.43
2019-03-26T05:44:36.078Z,4.70
2019-03-26T05:47:06.948Z,4.57
2019-03-26T05:49:38.247Z,4.33
2019-03-26T05:52:09.111Z,4.30
2019-03-26T05:54:40.118Z,4.27
2019-03-26T05:57:11.478Z,4.33
2019-03-26T05:59:42.630Z,4.10
2019-03-26T06:02:17.837Z,4.37
2019-03-26T06:04:47.184Z,4.87
2019-03-26T06:07:18.936Z,4.40
2019-03-26T06:09:50.465Z,5.00
2019-03-26T06:12:22.252Z,4.60
2019-03-26T06:14:53.748Z,4.20
2019-03-26T06:17:25.128Z,3.97
2019-03-26T06:19:55.971Z,3.90
2019-03-26T06:22:27.605Z,3.52
2019-03-26T06:24:58.581Z,4.00
2019-03-26T06:27:30.023Z,3.10
2019-03-26T06:30:01.177Z,3.83
2019-03-26T06:32:34.186Z,3.40
2019-03-26T06:35:05.686Z,3.50
2019-03-26T06:37:36.641Z,3.90
2019-03-26T06:40:09.723Z,3.67
2019-03-26T06:42:40.995Z,3.67
2019-03-26T06:45:12.947Z,3.47
2019-03-26T06:47:45.005Z,3.60
2019-03-26T06:50:17.271Z,3.30
2019-03-26T06:52:48.193Z,3.50
2019-03-26T06:55:19.499Z,3.80
2019-03-26T06:57:51.287Z,3.80
2019-03-26T07:00:32.049Z,3.57
2019-03-26T07:03:05.512Z,3.80
2019-03-26T07:05:36.549Z,3.77
2019-03-26T07:08:07.679Z,3.73
2019-03-26T07:10:39.132Z,4.13
2019-03-26T07:13:10.431Z,3.50
2019-03-26T07:15:43.139Z,3.50
2019-03-26T07:18:14.721Z,3.15
2019-03-26T07:20:46.799Z,3.00
2019-03-26T07:23:17.925Z,3.00
2019-03-26T07:25:49.581Z,2.30
2019-03-26T07:28:20.708Z,2.70
2019-03-26T07:30:51.623Z,2.20
2019-03-26T07:33:23.367Z,1.60
2019-03-26T07:35:54.877Z,1.60
2019-03-26T07:38:26.079Z,1.47
2019-03-26T07:40:56.967Z,1.23
2019-03-26T07:43:32.313Z,0.87
2019-03-26T07:46:11.195Z,1.00
2019-03-26T07:48:42.625Z,0.80
2019-03-26T07:51:14.046Z,0.90
2019-03-26T07:53:45.260Z,0.97
2019-03-26T07:56:17.776Z,0.80
2019-03-26T07:58:50.931Z,0.63
2019-03-26T08:01:22.016Z,0.90
2019-03-26T08:03:52.988Z,0.73
2019-03-26T08:06:23.850Z,0.77
2019-03-26T08:08:54.765Z,0.70
2019-03-26T08:11:25.982Z,0.90
2019-03-26T08:13:57.101Z,0.80
2019-03-26T08:16:28.532Z,0.60
2019-03-26T08:19:00.194Z,0.73
2019-03-26T08:21:32.350Z,0.70
2019-03-26T08:24:04.880Z,0.60
2019-03-26T08:26:36.877Z,0.70
2019-03-26T08:29:07.904Z,0.80
2019-03-26T08:31:38.876Z,0.90
2019-03-26T08:34:10.273Z,0.90
2019-03-26T08:36:42.275Z,1.20
2019-03-26T08:39:13.319Z,0.80
2019-03-26T08:41:44.665Z,1.00
2019-03-26T08:44:15.669Z,0.87
2019-03-26T08:46:47.123Z,3.13
2019-03-26T08:49:18.323Z,3.30
2019-03-26T08:51:49.201Z,1.47
2019-03-26T08:54:20.100Z,0.70
2019-03-26T08:56:50.979Z,0.47
2019-03-26T08:59:22.219Z,0.70
2019-03-26T09:01:53.648Z,0.53
2019-03-26T09:04:26.990Z,0.70
2019-03-26T09:06:57.630Z,8.23
2019-03-26T09:09:29.728Z,17.67
2019-03-26T09:12:00.644Z,4.90
2019-03-26T09:14:32.194Z,1.00
2019-03-26T09:17:03.468Z,0.90
2019-03-26T09:19:35.430Z,1.20
2019-03-26T09:22:06.714Z,1.07
2019-03-26T09:24:37.594Z,0.60
2019-03-26T09:27:08.373Z,0.73
2019-03-26T09:29:39.596Z,0.70
2019-03-26T09:32:10.836Z,0.80
2019-03-26T09:34:41.622Z,0.60
2019-03-26T09:37:12.696Z,0.60
2019-03-26T09:39:44.882Z,0.77
2019-03-26T09:42:16.330Z,0.50
2019-03-26T09:44:47.139Z,0.70
2019-03-26T09:47:17.919Z,0.60
2019-03-26T09:49:48.695Z,0.70
2019-03-26T09:52:20.190Z,0.57
2019-03-26T09:54:51.337Z,0.70
2019-03-26T09:57:22.489Z,0.80
2019-03-26T09:59:53.547Z,0.80
2019-03-26T10:02:26.144Z,0.63
2019-03-26T10:04:56.871Z,0.62
2019-03-26T10:07:28.107Z,0.50
2019-03-26T10:09:58.880Z,0.55
2019-03-26T10:12:29.666Z,0.50
2019-03-26T10:15:00.760Z,0.80
2019-03-26T10:17:33.450Z,1.90
2019-03-26T10:20:05.364Z,2.17
2019-03-26T10:22:37.568Z,2.40
2019-03-26T10:25:11.215Z,2.30
2019-03-26T10:27:42.481Z,2.53
2019-03-26T10:30:14.541Z,1.80
2019-03-26T10:32:45.840Z,1.75
2019-03-26T10:35:16.833Z,1.20
2019-03-26T10:37:47.908Z,1.70
2019-03-26T10:40:31.081Z,1.30
2019-03-26T10:43:02.588Z,1.10
2019-03-26T10:45:33.759Z,0.80
2019-03-26T10:48:06.441Z,1.05
2019-03-26T10:50:38.259Z,1.10
2019-03-26T10:53:10.126Z,1.15
2019-03-26T10:55:41.353Z,1.23
2019-03-26T10:58:12.990Z,1.20
2019-03-26T11:00:44.977Z,1.30
2019-03-26T11:03:16.106Z,1.02
2019-03-26T11:05:47.386Z,0.95
2019-03-26T11:08:18.859Z,1.22
2019-03-26T11:10:50.348Z,1.37
2019-03-26T11:13:21.337Z,1.90
2019-03-26T11:15:52.673Z,1.83
2019-03-26T11:18:24.299Z,1.70
2019-03-26T11:21:02.731Z,1.57
2019-03-26T11:23:29.355Z,1.40
2019-03-26T11:26:00.733Z,1.63
2019-03-26T11:28:31.783Z,1.13
2019-03-26T11:31:02.699Z,1.50
2019-03-26T11:33:34.636Z,1.40
2019-03-26T11:36:05.684Z,1.67
2019-03-26T11:38:36.929Z,1.80
2019-03-26T11:41:08.689Z,1.60
2019-03-26T11:43:40.059Z,1.97
2019-03-26T11:46:11.394Z,2.12
2019-03-26T11:48:42.767Z,2.10
2019-03-26T11:51:14.254Z,1.87
2019-03-26T11:53:45.134Z,1.70
2019-03-26T11:56:15.954Z,1.80
2019-03-26T11:58:47.722Z,1.40
2019-03-26T12:01:20.894Z,1.83
2019-03-26T12:03:52.050Z,1.82
2019-03-26T12:06:24.443Z,1.25
2019-03-26T12:08:55.227Z,1.30
2019-03-26T12:11:27.283Z,1.20
2019-03-26T12:13:58.073Z,1.10
2019-03-26T12:16:28.969Z,1.35
2019-03-26T12:19:00.130Z,1.00
2019-03-26T12:21:32.196Z,1.05
2019-03-26T12:24:05.073Z,1.45
2019-03-26T12:26:36.564Z,1.07
2019-03-26T12:29:07.379Z,1.40
2019-03-26T12:31:38.709Z,1.40
2019-03-26T12:34:15.641Z,1.30
2019-03-26T12:36:47.638Z,1.50
2019-03-26T12:39:18.867Z,1.00
2019-03-26T12:41:50.487Z,0.90
2019-03-26T12:44:22.026Z,1.20
2019-03-26T12:46:52.904Z,1.33
2019-03-26T12:49:23.732Z,1.32
2019-03-26T12:51:54.976Z,1.00
2019-03-26T12:54:25.878Z,1.10
2019-03-26T12:56:56.869Z,1.27
2019-03-26T12:59:28.477Z,1.10
2019-03-26T13:01:59.390Z,1.25
2019-03-26T13:04:30.525Z,0.90
2019-03-26T13:07:01.942Z,1.05
2019-03-26T13:09:32.683Z,0.98
2019-03-26T13:12:03.562Z,0.78
2019-03-26T13:14:34.842Z,0.80
2019-03-26T13:17:06.392Z,0.78
2019-03-26T13:19:38.032Z,0.98
2019-03-26T13:22:09.227Z,1.55
2019-03-26T13:24:40.177Z,0.80
2019-03-26T13:27:11.780Z,0.70
2019-03-26T13:29:43.323Z,0.80
2019-03-26T13:32:14.209Z,0.82
2019-03-26T13:34:45.809Z,1.10
2019-03-26T13:37:16.645Z,1.15
2019-03-26T13:39:47.487Z,0.80
2019-03-26T13:42:18.310Z,1.20
2019-03-26T13:44:50.847Z,1.40
2019-03-26T13:47:21.965Z,1.32
2019-03-26T13:49:52.744Z,1.10
2019-03-26T13:52:23.541Z,1.10
2019-03-26T13:54:54.319Z,1.15
2019-03-26T13:57:25.121Z,1.10
2019-03-26T13:59:55.902Z,1.30
2019-03-26T14:02:27.786Z,1.20
2019-03-26T14:04:58.927Z,1.20
2019-03-26T14:07:29.832Z,1.07
2019-03-26T14:10:01.760Z,0.90
2019-03-26T14:12:34.138Z,0.88
2019-03-26T14:15:05.370Z,1.10
2019-03-26T14:17:36.379Z,0.70
2019-03-26T14:20:08.063Z,1.37
2019-03-26T14:22:39.292Z,1.20
2019-03-26T14:25:10.225Z,1.07
2019-03-26T14:27:42.126Z,1.22
2019-03-26T14:30:14.333Z,1.05
2019-03-26T14:32:45.135Z,1.10
2019-03-26T14:35:16.923Z,1.42
2019-03-26T14:37:51.543Z,1.15
2019-03-26T14:40:20.267Z,1.40
2019-03-26T14:42:51.381Z,0.87
2019-03-26T14:45:22.455Z,1.50
2019-03-26T14:47:53.355Z,1.95
2019-03-26T14:50:24.120Z,1.12
2019-03-26T14:52:54.989Z,1.22
2019-03-26T14:55:25.777Z,1.05
2019-03-26T14:57:56.550Z,1.22
2019-03-26T15:00:27.352Z,1.40
2019-03-26T15:02:58.453Z,1.10
2019-03-26T15:05:29.390Z,1.27
2019-03-26T15:08:00.185Z,1.22
2019-03-26T15:10:31.609Z,0.98
2019-03-26T15:13:02.368Z,1.30
2019-03-26T15:15:36.386Z,1.12
2019-03-26T15:18:05.697Z,1.00
2019-03-26T15:20:36.574Z,1.07
2019-03-26T15:23:07.381Z,0.90
2019-03-26T15:25:39.058Z,1.52
2019-03-26T15:28:11.741Z,0.78
2019-03-26T15:30:43.068Z,1.32
2019-03-26T15:33:13.888Z,1.20
2019-03-26T15:35:45.175Z,1.20
2019-03-26T15:38:16.552Z,1.50
2019-03-26T15:40:47.620Z,1.22
2019-03-26T15:43:18.454Z,1.37
2019-03-26T15:45:49.920Z,1.35
2019-03-26T15:48:20.764Z,1.12
2019-03-26T15:50:51.780Z,1.00
2019-03-26T15:53:22.627Z,1.00
2019-03-26T15:55:53.528Z,1.25
2019-03-26T15:58:24.285Z,1.60
2019-03-26T16:00:55.511Z,1.40
2019-03-26T16:03:27.396Z,1.20
2019-03-26T16:05:59.284Z,1.00
2019-03-26T16:08:30.134Z,1.50
2019-03-26T16:11:00.437Z,1.42
2019-03-26T16:13:31.879Z,0.90
2019-03-26T16:16:03.434Z,1.57
2019-03-26T16:18:35.111Z,1.55
2019-03-26T16:21:05.994Z,1.45
2019-03-26T16:23:37.135Z,1.55
2019-03-26T16:26:08.489Z,1.40
2019-03-26T16:28:39.780Z,1.77
2019-03-26T16:31:10.684Z,1.77
2019-03-26T16:33:41.856Z,1.80
2019-03-26T16:36:13.616Z,1.83
2019-03-26T16:38:45.357Z,1.62
2019-03-26T16:41:17.354Z,1.63
2019-03-26T16:43:48.544Z,1.70
2019-03-26T16:46:19.630Z,1.77
2019-03-26T16:48:51.172Z,1.67
2019-03-26T16:51:22.487Z,1.53
2019-03-26T16:53:53.376Z,2.10
2019-03-26T16:56:24.647Z,1.80
2019-03-26T16:58:55.953Z,1.70
2019-03-26T17:01:26.835Z,1.63
2019-03-26T17:03:59.373Z,1.80
2019-03-26T17:06:30.332Z,1.67
2019-03-26T17:09:07.251Z,1.83
2019-03-26T17:11:38.271Z,1.77
2019-03-26T17:14:09.139Z,2.87
2019-03-26T17:16:40.022Z,3.10
2019-03-26T17:19:11.626Z,2.73
2019-03-26T17:21:42.778Z,4.30
2019-03-26T17:24:13.740Z,3.33
2019-03-26T17:26:45.350Z,3.17
2019-03-26T17:29:16.910Z,4.20
2019-03-26T17:31:48.222Z,2.93
2019-03-26T17:34:19.077Z,3.73
2019-03-26T17:36:50.238Z,2.80
2019-03-26T17:39:23.003Z,2.30
2019-03-26T17:41:54.137Z,2.10
2019-03-26T17:44:25.158Z,2.07
2019-03-26T17:46:56.309Z,2.07
2019-03-26T17:49:27.597Z,1.87
2019-03-26T17:51:58.737Z,1.80
2019-03-26T17:54:30.137Z,1.83
2019-03-26T17:57:00.936Z,1.70
2019-03-26T17:59:32.270Z,2.07
2019-03-26T18:02:03.526Z,1.90
2019-03-26T18:04:34.463Z,2.40
2019-03-26T18:07:05.717Z,2.17
2019-03-26T18:09:36.793Z,2.20
2019-03-26T18:12:07.682Z,2.27
2019-03-26T18:14:38.641Z,2.10
2019-03-26T18:17:09.570Z,2.30
2019-03-26T18:19:40.912Z,1.80
2019-03-26T18:22:11.870Z,2.10
2019-03-26T18:24:44.205Z,1.97
2019-03-26T18:27:15.332Z,2.07
2019-03-26T18:29:46.212Z,2.40
2019-03-26T18:32:29.802Z,2.05
2019-03-26T18:35:06.231Z,2.10
2019-03-26T18:37:37.193Z,2.07
2019-03-26T18:40:08.918Z,2.23
2019-03-26T18:42:44.337Z,1.87
2019-03-26T18:45:13.527Z,1.90
2019-03-26T18:47:44.591Z,1.70
2019-03-26T18:50:16.098Z,2.20
2019-03-26T18:52:47.314Z,2.13
2019-03-26T18:55:18.260Z,1.90
2019-03-26T18:57:49.829Z,2.00
2019-03-26T19:00:33.830Z,2.13
2019-03-26T19:03:06.944Z,1.93
2019-03-26T19:05:39.433Z,1.43
2019-03-26T19:08:11.800Z,2.03
2019-03-26T19:10:43.316Z,1.63
2019-03-26T19:13:19.727Z,1.73
2019-03-26T19:15:48.167Z,2.20
2019-03-26T19:18:32.961Z,1.93
2019-03-26T19:21:03.838Z,2.10
2019-03-26T19:23:34.969Z,2.00
2019-03-26T19:26:05.990Z,1.87
2019-03-26T19:28:37.219Z,1.83
2019-03-26T19:31:08.527Z,1.90
2019-03-26T19:33:40.337Z,1.63
2019-03-26T19:36:11.196Z,1.70
2019-03-26T19:38:42.728Z,1.50
2019-03-26T19:41:14.763Z,1.37
2019-03-26T19:43:45.668Z,1.80
2019-03-26T19:46:18.055Z,1.70
2019-03-26T19:48:49.371Z,1.70
2019-03-26T19:51:20.943Z,1.80
2019-03-26T19:53:52.270Z,1.73
2019-03-26T19:56:25.210Z,1.70
2019-03-26T19:58:57.769Z,1.80
2019-03-26T20:01:29.080Z,1.87
2019-03-26T20:04:00.802Z,2.20
2019-03-26T20:06:32.542Z,2.03
2019-03-26T20:09:05.585Z,2.00
2019-03-26T20:11:36.543Z,2.00
2019-03-26T20:14:08.038Z,1.90
2019-03-26T20:16:52.799Z,2.10
2019-03-26T20:19:23.725Z,2.00
2019-03-26T20:21:55.265Z,2.17
2019-03-26T20:24:26.895Z,2.07
2019-03-26T20:26:57.713Z,1.97
2019-03-26T20:29:28.545Z,1.80
2019-03-26T20:31:59.763Z,2.10
2019-03-26T20:34:30.598Z,2.20
2019-03-26T20:37:02.623Z,2.00
2019-03-26T20:39:33.722Z,2.27
2019-03-26T20:42:05.075Z,2.10
2019-03-26T20:44:36.613Z,2.17
2019-03-26T20:47:07.783Z,2.10
2019-03-26T20:49:39.091Z,2.70
2019-03-26T20:52:09.964Z,2.80
2019-03-26T20:54:41.915Z,2.53
2019-03-26T20:57:14.614Z,2.40
2019-03-26T20:59:46.668Z,3.33
2019-03-26T21:02:18.130Z,2.60
2019-03-26T21:04:49.447Z,3.17
2019-03-26T21:07:21.507Z,2.37
2019-03-26T21:09:52.643Z,2.83
2019-03-26T21:12:23.399Z,2.40
2019-03-26T21:14:54.632Z,2.60
2019-03-26T21:17:28.161Z,2.90
2019-03-26T21:19:59.474Z,2.75
2019-03-26T21:22:31.204Z,2.43
2019-03-26T21:25:05.093Z,2.37
2019-03-26T21:27:37.323Z,2.30
2019-03-26T21:30:15.542Z,2.40
2019-03-26T21:32:45.750Z,4.87
2019-03-26T21:35:16.575Z,4.90
2019-03-26T21:37:47.411Z,5.40
2019-03-26T21:40:18.867Z,5.37
2019-03-26T21:42:50.025Z,6.87
2019-03-26T21:45:33.668Z,6.57
2019-03-26T21:48:05.202Z,6.97
2019-03-26T21:50:37.756Z,6.07
2019-03-26T21:53:10.272Z,4.50
2019-03-26T21:55:41.178Z,3.07
2019-03-26T21:58:14.090Z,3.17
2019-03-26T22:00:45.030Z,3.23
2019-03-26T22:03:15.872Z,3.53
2019-03-26T22:05:48.093Z,3.20
2019-03-26T22:08:19.254Z,2.50
2019-03-26T22:10:50.405Z,2.85
2019-03-26T22:13:21.243Z,2.90
2019-03-26T22:15:52.127Z,2.80
2019-03-26T22:18:22.964Z,2.70
2019-03-26T22:20:53.901Z,2.80
2019-03-26T22:23:24.742Z,2.97
2019-03-26T22:25:56.152Z,3.10
2019-03-26T22:28:26.984Z,2.63
2019-03-26T22:30:58.463Z,2.27
2019-03-26T22:33:29.447Z,2.13
2019-03-26T22:36:00.527Z,2.30
2019-03-26T22:38:31.713Z,2.10
2019-03-26T22:41:03.331Z,2.20
2019-03-26T22:43:34.457Z,2.07
2019-03-26T22:46:05.339Z,2.10
2019-03-26T22:48:36.860Z,2.10
2019-03-26T22:51:08.067Z,2.47
2019-03-26T22:53:39.313Z,2.17
2019-03-26T22:56:10.084Z,2.30
2019-03-26T22:58:40.936Z,2.40
2019-03-26T23:01:11.790Z,2.20
2019-03-26T23:03:44.220Z,1.83
2019-03-26T23:06:15.061Z,1.80
2019-03-26T23:08:45.903Z,2.07
2019-03-26T23:11:16.642Z,1.60
2019-03-26T23:13:47.789Z,2.20
2019-03-26T23:16:20.464Z,2.40
2019-03-26T23:18:52.727Z,2.60
2019-03-26T23:21:23.777Z,2.43
2019-03-26T23:23:54.920Z,1.83
2019-03-26T23:26:27.209Z,2.37
2019-03-26T23:28:58.018Z,2.43
2019-03-26T23:31:29.341Z,2.63
2019-03-26T23:34:00.403Z,2.97
2019-03-26T23:36:31.154Z,2.63
2019-03-26T23:39:03.732Z,2.60
2019-03-26T23:41:39.449Z,2.70
2019-03-26T23:44:08.676Z,2.63
2019-03-26T23:46:39.408Z,2.50
2019-03-26T23:49:10.244Z,2.67
2019-03-26T23:51:41.423Z,2.30
2019-03-26T23:54:12.302Z,2.60
2019-03-26T23:56:43.062Z,2.63
2019-03-26T23:59:14.624Z,2.50
